createdAt,value
2018-01-13T00:00:04.405Z,15.00
2018-01-13T00:02:30.847Z,15.65
2018-01-13T00:04:57.187Z,16.05
2018-01-13T00:07:24.298Z,14.27
2018-01-13T00:09:50.647Z,16.73
2018-01-13T00:12:17.691Z,15.85
2018-01-13T00:14:44.054Z,16.20
2018-01-13T00:17:11.155Z,15.45
2018-01-13T00:19:37.476Z,16.42
2018-01-13T00:22:03.831Z,17.10
2018-01-13T00:24:30.243Z,15.50
2018-01-13T00:26:56.605Z,15.40
2018-01-13T00:29:22.927Z,16.00
2018-01-13T00:31:49.290Z,16.55
2018-01-13T00:34:15.638Z,15.95
2018-01-13T00:36:42.714Z,15.70
2018-01-13T00:39:10.055Z,15.90
2018-01-13T00:41:36.382Z,17.50
2018-01-13T00:44:02.711Z,16.95
2018-01-13T00:46:29.070Z,17.10
2018-01-13T00:48:55.456Z,17.42
2018-01-13T00:51:22.533Z,17.87
2018-01-13T00:53:48.874Z,18.95
2018-01-13T00:56:15.221Z,19.50
2018-01-13T00:58:41.642Z,18.15
2018-01-13T01:01:08.042Z,20.05
2018-01-13T01:03:35.122Z,16.95
2018-01-13T01:06:01.475Z,18.73
2018-01-13T01:08:27.802Z,18.77
2018-01-13T01:10:54.138Z,17.62
2018-01-13T01:13:20.485Z,19.12
2018-01-13T01:15:46.826Z,19.12
2018-01-13T01:18:13.905Z,18.40
2018-01-13T01:20:40.246Z,18.35
2018-01-13T01:23:06.774Z,17.48
2018-01-13T01:25:33.718Z,19.30
2018-01-13T01:28:00.063Z,20.33
2018-01-13T01:30:26.437Z,19.85
2018-01-13T01:32:53.514Z,18.83
2018-01-13T01:35:20.583Z,19.10
2018-01-13T01:37:46.938Z,22.33
2018-01-13T01:40:13.262Z,18.98
2018-01-13T01:42:39.607Z,18.77
2018-01-13T01:45:05.954Z,19.92
2018-01-13T01:47:33.046Z,20.58
2018-01-13T01:49:59.387Z,18.55
2018-01-13T01:52:25.710Z,19.27
2018-01-13T01:54:52.065Z,18.48
2018-01-13T01:57:18.396Z,17.27
2018-01-13T01:59:44.727Z,18.25
2018-01-13T02:02:11.102Z,17.52
2018-01-13T02:04:38.206Z,19.73
2018-01-13T02:07:04.550Z,20.92
2018-01-13T02:09:30.870Z,17.00
2018-01-13T02:11:57.255Z,20.40
2018-01-13T02:14:23.614Z,19.70
2018-01-13T02:16:49.955Z,19.10
2018-01-13T02:19:16.315Z,22.92
2018-01-13T02:21:42.651Z,19.90
2018-01-13T02:24:08.993Z,15.93
2018-01-13T02:26:35.358Z,18.27
2018-01-13T02:29:01.688Z,18.40
2018-01-13T02:31:28.018Z,17.65
2018-01-13T02:33:54.366Z,16.73
2018-01-13T02:36:20.710Z,16.52
2018-01-13T02:38:47.099Z,17.77
2018-01-13T02:41:14.154Z,15.10
2018-01-13T02:43:41.234Z,17.37
2018-01-13T02:46:07.579Z,15.80
2018-01-13T02:48:33.971Z,15.57
2018-01-13T02:51:00.326Z,15.98
2018-01-13T02:53:26.650Z,15.93
2018-01-13T02:55:52.971Z,15.07
2018-01-13T02:58:19.338Z,14.87
2018-01-13T03:00:45.650Z,15.77
2018-01-13T03:03:12.041Z,15.10
2018-01-13T03:05:39.098Z,15.48
2018-01-13T03:08:06.178Z,15.52
2018-01-13T03:10:32.524Z,17.02
2018-01-13T03:12:58.994Z,15.82
2018-01-13T03:15:26.106Z,17.12
2018-01-13T03:17:52.466Z,16.30
2018-01-13T03:20:18.862Z,16.23
2018-01-13T03:22:46.260Z,18.55
2018-01-13T03:25:12.613Z,17.92
2018-01-13T03:27:39.736Z,17.30
2018-01-13T03:30:06.225Z,17.40
2018-01-13T03:32:32.590Z,19.30
2018-01-13T03:34:58.974Z,20.08
2018-01-13T03:37:25.339Z,19.67
2018-01-13T03:39:51.705Z,18.00
2018-01-13T03:42:18.806Z,17.80
2018-01-13T03:44:45.170Z,17.08
2018-01-13T03:47:11.578Z,16.08
2018-01-13T03:49:37.939Z,18.35
2018-01-13T03:52:04.294Z,17.90
2018-01-13T03:54:31.406Z,16.08
2018-01-13T03:56:57.770Z,16.77
2018-01-13T03:59:24.883Z,16.90
2018-01-13T04:01:51.249Z,16.42
2018-01-13T04:04:19.383Z,17.10
2018-01-13T04:06:45.754Z,16.45
2018-01-13T04:09:12.867Z,16.20
2018-01-13T04:11:39.242Z,17.08
2018-01-13T04:14:06.354Z,15.30
2018-01-13T04:16:32.954Z,15.18
2018-01-13T04:18:59.335Z,16.73
2018-01-13T04:21:25.699Z,15.50
2018-01-13T04:23:52.058Z,15.80
2018-01-13T04:26:18.609Z,16.62
2018-01-13T04:28:44.974Z,15.45
2018-01-13T04:31:12.138Z,18.60
2018-01-13T04:33:39.242Z,17.92
2018-01-13T04:36:05.606Z,19.90
2018-01-13T04:38:33.594Z,19.50
2018-01-13T04:41:00.696Z,19.35
2018-01-13T04:43:27.080Z,19.52
2018-01-13T04:45:53.482Z,19.60
2018-01-13T04:48:19.884Z,17.33
2018-01-13T04:50:46.247Z,18.00
2018-01-13T04:53:12.607Z,18.70
2018-01-13T04:55:39.014Z,18.70
2018-01-13T04:58:06.724Z,17.52
2018-01-13T05:00:33.099Z,18.23
2018-01-13T05:02:59.475Z,18.35
2018-01-13T05:05:25.835Z,17.55
2018-01-13T05:07:53.717Z,17.48
2018-01-13T05:10:20.106Z,17.92
2018-01-13T05:12:46.475Z,18.00
2018-01-13T05:15:13.866Z,18.25
2018-01-13T05:17:40.972Z,18.30
2018-01-13T05:20:07.385Z,18.10
2018-01-13T05:22:33.754Z,19.75
2018-01-13T05:25:01.627Z,18.25
2018-01-13T05:27:28.762Z,18.60
2018-01-13T05:29:55.142Z,18.75
2018-01-13T05:32:22.238Z,18.25
2018-01-13T05:34:48.621Z,17.05
2018-01-13T05:37:16.771Z,17.98
2018-01-13T05:39:43.881Z,16.10
2018-01-13T05:42:10.270Z,17.50
2018-01-13T05:44:37.370Z,20.17
2018-01-13T05:47:03.734Z,19.05
2018-01-13T05:49:30.138Z,22.13
2018-01-13T05:51:56.518Z,21.27
2018-01-13T05:54:23.630Z,20.02
2018-01-13T05:56:50.014Z,19.73
2018-01-13T05:59:16.394Z,18.55
2018-01-13T06:01:42.778Z,18.55
2018-01-13T06:04:09.147Z,20.50
2018-01-13T06:06:35.506Z,20.10
2018-01-13T06:09:02.678Z,20.25
2018-01-13T06:11:29.059Z,19.15
2018-01-13T06:13:55.423Z,19.50
2018-01-13T06:16:22.552Z,19.35
2018-01-13T06:18:48.941Z,20.05
2018-01-13T06:21:15.326Z,19.00
2018-01-13T06:23:41.695Z,19.65
2018-01-13T06:26:08.063Z,17.85
2018-01-13T06:28:34.457Z,21.20
2018-01-13T06:31:00.899Z,19.12
2018-01-13T06:33:27.270Z,19.95
2018-01-13T06:35:53.651Z,17.67
2018-01-13T06:38:20.058Z,19.35
2018-01-13T06:40:46.447Z,18.37
2018-01-13T06:43:12.818Z,20.98
2018-01-13T06:45:39.191Z,20.52
2018-01-13T06:48:05.563Z,19.75
2018-01-13T06:50:31.930Z,19.65
2018-01-13T06:52:59.047Z,18.58
2018-01-13T06:55:25.405Z,20.60
2018-01-13T06:57:51.826Z,19.08
2018-01-13T07:00:18.213Z,20.33
2018-01-13T07:02:44.591Z,19.50
2018-01-13T07:05:10.954Z,21.58
2018-01-13T07:07:37.319Z,21.27
2018-01-13T07:10:03.710Z,22.33
2018-01-13T07:12:30.826Z,20.37
2018-01-13T07:14:57.186Z,19.50
2018-01-13T07:17:24.369Z,19.77
2018-01-13T07:19:50.747Z,18.48
2018-01-13T07:22:17.146Z,20.85
2018-01-13T07:24:43.527Z,18.58
2018-01-13T07:27:10.658Z,20.70
2018-01-13T07:29:37.034Z,21.52
2018-01-13T07:32:03.423Z,22.60
2018-01-13T07:34:29.778Z,23.40
2018-01-13T07:36:56.924Z,21.70
2018-01-13T07:39:24.030Z,21.48
2018-01-13T07:41:50.417Z,27.83
2018-01-13T07:44:16.791Z,21.42
2018-01-13T07:46:43.162Z,26.92
2018-01-13T07:49:10.300Z,24.20
2018-01-13T07:51:36.684Z,21.98
2018-01-13T07:54:03.128Z,24.48
2018-01-13T07:56:29.518Z,20.37
2018-01-13T07:58:56.666Z,21.23
2018-01-13T08:01:23.790Z,19.30
2018-01-13T08:03:50.159Z,21.12
2018-01-13T08:06:16.566Z,20.27
2018-01-13T08:08:43.773Z,19.12
2018-01-13T08:11:10.171Z,20.90
2018-01-13T08:13:37.293Z,19.95
2018-01-13T08:16:03.678Z,20.70
2018-01-13T08:18:31.955Z,23.45
2018-01-13T08:20:58.314Z,21.87
2018-01-13T08:23:24.699Z,20.25
2018-01-13T08:25:51.810Z,20.77
2018-01-13T08:28:18.191Z,22.87
2018-01-13T08:30:44.568Z,19.50
2018-01-13T08:33:10.954Z,20.00
2018-01-13T08:35:37.402Z,20.90
2018-01-13T08:38:03.785Z,19.33
2018-01-13T08:40:30.165Z,19.52
2018-01-13T08:42:56.689Z,19.55
2018-01-13T08:45:23.912Z,17.37
2018-01-13T08:47:51.058Z,18.12
2018-01-13T08:50:18.166Z,16.90
2018-01-13T08:52:44.534Z,19.33
2018-01-13T08:55:10.896Z,18.87
2018-01-13T08:57:37.303Z,17.37
2018-01-13T09:00:04.487Z,15.30
2018-01-13T09:05:00.667Z,18.65
2018-01-13T09:07:27.042Z,17.67
2018-01-13T09:09:54.783Z,20.48
2018-01-13T09:12:21.183Z,17.58
2018-01-13T09:14:47.558Z,16.67
2018-01-13T09:17:15.070Z,19.25
2018-01-13T09:19:41.426Z,15.27
2018-01-13T09:22:07.795Z,18.50
2018-01-13T09:24:35.654Z,18.87
2018-01-13T09:27:03.788Z,16.20
2018-01-13T09:29:30.154Z,17.75
2018-01-13T09:31:57.266Z,17.73
2018-01-13T09:34:23.634Z,19.80
2018-01-13T09:36:50.746Z,19.25
2018-01-13T09:39:17.132Z,20.55
2018-01-13T09:41:44.294Z,16.85
2018-01-13T09:44:10.654Z,15.93
2018-01-13T09:46:37.240Z,16.42
2018-01-13T09:49:04.399Z,15.82
2018-01-13T09:51:31.591Z,16.30
2018-01-13T09:53:57.998Z,14.45
2018-01-13T09:56:24.377Z,19.00
2018-01-13T09:58:50.758Z,17.20
2018-01-13T10:01:17.154Z,14.87
2018-01-13T10:03:43.541Z,14.75
2018-01-13T10:06:09.902Z,14.23
2018-01-13T10:08:36.295Z,16.27
2018-01-13T10:11:02.659Z,16.50
2018-01-13T10:13:29.030Z,16.33
2018-01-13T10:15:56.174Z,14.00
2018-01-13T10:18:23.314Z,15.70
2018-01-13T10:20:49.699Z,15.10
2018-01-13T10:23:16.071Z,14.50
2018-01-13T10:25:43.467Z,13.50
2018-01-13T10:28:09.843Z,18.50
2018-01-13T10:30:36.218Z,15.50
2018-01-13T10:33:02.602Z,14.38
2018-01-13T10:35:28.961Z,13.80
2018-01-13T10:37:56.692Z,15.43
2018-01-13T10:40:23.850Z,14.15
2018-01-13T10:42:50.236Z,17.10
2018-01-13T10:45:16.667Z,12.90
2018-01-13T10:47:43.782Z,13.95
2018-01-13T10:50:10.146Z,15.05
2018-01-13T10:52:36.515Z,13.55
2018-01-13T10:55:02.919Z,14.90
2018-01-13T10:57:29.294Z,13.88
2018-01-13T10:59:55.673Z,14.27
2018-01-13T11:02:22.774Z,15.55
2018-01-13T11:04:49.170Z,15.88
2018-01-13T11:07:15.545Z,16.77
2018-01-13T11:09:42.150Z,14.73
2018-01-13T11:12:08.526Z,16.58
2018-01-13T11:14:34.918Z,16.15
2018-01-13T11:17:01.287Z,16.35
2018-01-13T11:19:28.463Z,17.10
2018-01-13T11:21:55.571Z,17.15
2018-01-13T11:24:21.958Z,18.23
2018-01-13T11:26:48.326Z,18.58
2018-01-13T11:29:14.711Z,16.85
2018-01-13T11:31:41.830Z,15.50
2018-01-13T11:34:08.290Z,16.52
2018-01-13T11:36:34.655Z,15.95
2018-01-13T11:39:02.078Z,15.85
2018-01-13T11:41:29.190Z,16.70
2018-01-13T11:43:55.599Z,14.18
2018-01-13T11:46:22.742Z,16.50
2018-01-13T11:48:49.110Z,13.77
2018-01-13T11:51:15.502Z,14.82
2018-01-13T11:53:42.602Z,14.40
2018-01-13T11:56:08.999Z,15.77
2018-01-13T11:58:35.381Z,18.02
2018-01-13T12:01:01.755Z,15.98
2018-01-13T12:03:28.204Z,15.80
2018-01-13T12:05:54.566Z,16.33
2018-01-13T12:08:20.946Z,17.25
2018-01-13T12:10:48.050Z,16.23
2018-01-13T12:13:14.410Z,16.70
2018-01-13T12:15:41.530Z,15.23
2018-01-13T12:18:07.890Z,16.77
2018-01-13T12:20:34.992Z,16.10
2018-01-13T12:23:01.387Z,15.77
2018-01-13T12:25:28.510Z,14.15
2018-01-13T12:27:54.894Z,18.25
2018-01-13T12:30:21.254Z,16.25
2018-01-13T12:32:47.614Z,14.77
2018-01-13T12:35:14.013Z,16.15
2018-01-13T12:37:40.375Z,16.62
2018-01-13T12:40:07.514Z,15.57
2018-01-13T12:42:33.901Z,15.52
2018-01-13T12:45:01.295Z,16.58
2018-01-13T12:47:28.690Z,15.55
2018-01-13T12:49:55.800Z,16.12
2018-01-13T12:52:22.187Z,16.60
2018-01-13T12:54:49.295Z,16.02
2018-01-13T12:57:15.674Z,14.98
2018-01-13T12:59:42.059Z,17.45
2018-01-13T13:02:09.209Z,15.35
2018-01-13T13:04:37.079Z,15.57
2018-01-13T13:07:03.503Z,16.20
2018-01-13T13:09:34.036Z,15.95
2018-01-13T13:12:00.402Z,15.13
2018-01-13T13:14:27.521Z,15.20
2018-01-13T13:16:53.884Z,16.27
2018-01-13T13:19:20.999Z,16.15
2018-01-13T13:21:47.370Z,16.48
2018-01-13T13:24:15.498Z,16.12
2018-01-13T13:26:41.866Z,17.50
2018-01-13T13:29:08.977Z,16.80
2018-01-13T13:31:35.354Z,18.58
2018-01-13T13:34:02.506Z,22.52
2018-01-13T13:36:29.602Z,16.90
2018-01-13T13:38:55.966Z,21.77
2018-01-13T13:41:22.341Z,16.12
2018-01-13T13:43:48.739Z,16.77
2018-01-13T13:46:15.869Z,19.95
2018-01-13T13:48:42.250Z,17.92
2018-01-13T13:51:08.634Z,15.63
2018-01-13T13:53:35.099Z,17.10
2018-01-13T13:56:02.224Z,16.45
2018-01-13T13:58:28.594Z,17.25
2018-01-13T14:00:54.966Z,15.48
2018-01-13T14:03:21.338Z,16.33
2018-01-13T14:05:48.490Z,15.30
2018-01-13T14:08:14.941Z,17.15
2018-01-13T14:10:41.316Z,15.82
2018-01-13T14:13:07.695Z,17.25
2018-01-13T14:15:34.795Z,17.10
2018-01-13T14:18:01.162Z,16.80
2018-01-13T14:20:28.298Z,15.60
2018-01-13T14:22:54.672Z,15.65
2018-01-13T14:25:21.038Z,16.35
2018-01-13T14:27:47.464Z,15.55
2018-01-13T14:30:13.851Z,16.27
2018-01-13T14:32:40.974Z,16.83
2018-01-13T14:35:07.373Z,14.80
2018-01-13T14:37:33.739Z,14.98
2018-01-13T14:40:00.124Z,14.18
2018-01-13T14:42:26.486Z,15.95
2018-01-13T14:44:52.860Z,14.60
2018-01-13T14:47:19.811Z,15.77
2018-01-13T14:49:46.174Z,16.55
2018-01-13T14:52:12.595Z,16.15
2018-01-13T14:54:38.956Z,15.82
2018-01-13T14:57:05.331Z,17.27
2018-01-13T14:59:32.435Z,17.00
2018-01-13T15:01:58.798Z,15.65
2018-01-13T15:04:25.934Z,17.40
2018-01-13T15:06:52.338Z,17.37
2018-01-13T15:09:19.828Z,15.80
2018-01-13T15:11:46.959Z,17.25
2018-01-13T15:14:14.326Z,20.10
2018-01-13T15:16:40.717Z,15.68
2018-01-13T15:19:07.298Z,16.17
2018-01-13T15:21:33.671Z,18.00
2018-01-13T15:24:00.037Z,18.77
2018-01-13T15:26:26.431Z,16.58
2018-01-13T15:28:52.838Z,22.05
2018-01-13T15:31:19.963Z,22.17
2018-01-13T15:33:46.325Z,20.75
2018-01-13T15:36:13.438Z,17.75
2018-01-13T15:38:39.802Z,19.73
2018-01-13T15:41:06.179Z,20.40
2018-01-13T15:43:32.562Z,18.77
2018-01-13T15:45:59.699Z,18.05
2018-01-13T15:48:26.095Z,16.40
2018-01-13T15:50:52.483Z,18.25
2018-01-13T15:53:18.838Z,19.73
2018-01-13T15:55:45.199Z,19.48
2018-01-13T15:58:11.723Z,18.12
2018-01-13T16:00:38.082Z,17.67
2018-01-13T16:03:04.458Z,16.87
2018-01-13T16:05:31.934Z,18.00
2018-01-13T16:07:58.286Z,16.80
2018-01-13T16:10:24.657Z,17.10
2018-01-13T16:12:51.011Z,20.12
2018-01-13T16:15:18.123Z,17.30
2018-01-13T16:17:45.506Z,20.33
2018-01-13T16:20:12.635Z,16.83
2018-01-13T16:22:39.057Z,24.35
2018-01-13T16:25:05.443Z,21.35
2018-01-13T16:27:31.858Z,17.23
2018-01-13T16:29:58.987Z,17.75
2018-01-13T16:32:25.351Z,18.77
2018-01-13T16:34:53.425Z,16.75
2018-01-13T16:37:19.818Z,19.10
2018-01-13T16:39:46.215Z,16.80
2018-01-13T16:42:12.585Z,17.95
2018-01-13T16:44:38.979Z,18.42
2018-01-13T16:47:05.338Z,18.60
2018-01-13T16:49:31.794Z,17.37
2018-01-13T16:51:58.159Z,17.35
2018-01-13T16:54:24.550Z,17.50
2018-01-13T16:56:50.914Z,15.60
2018-01-13T16:59:18.022Z,16.00
2018-01-13T17:01:44.386Z,18.30
2018-01-13T17:04:12.514Z,20.00
2018-01-13T17:06:38.923Z,18.90
2018-01-13T17:09:05.274Z,23.60
2018-01-13T17:11:31.638Z,20.12
2018-01-13T17:13:58.011Z,15.60
2018-01-13T17:16:24.370Z,16.83
2018-01-13T17:18:50.740Z,16.75
2018-01-13T17:21:17.882Z,15.88
2018-01-13T17:23:44.259Z,18.83
2018-01-13T17:26:10.619Z,16.23
2018-01-13T17:28:36.994Z,16.73
2018-01-13T17:31:04.093Z,18.52
2018-01-13T17:33:31.465Z,18.70
2018-01-13T17:35:57.850Z,16.62
2018-01-13T17:38:24.215Z,17.05
2018-01-13T17:40:50.578Z,16.08
2018-01-13T17:43:16.971Z,18.08
2018-01-13T17:45:43.354Z,15.75
2018-01-13T17:48:10.482Z,17.08
2018-01-13T17:50:38.330Z,18.52
2018-01-13T17:53:04.703Z,15.35
2018-01-13T17:55:31.827Z,18.70
2018-01-13T17:57:58.179Z,17.10
2018-01-13T18:00:25.286Z,16.05
2018-01-13T18:02:51.647Z,16.27
2018-01-13T18:05:18.006Z,18.20
2018-01-13T18:07:45.286Z,19.00
2018-01-13T18:10:11.671Z,19.45
2018-01-13T18:12:38.791Z,19.10
2018-01-13T18:15:05.222Z,25.92
2018-01-13T18:17:31.590Z,25.80
2018-01-13T18:19:58.710Z,19.10
2018-01-13T18:22:25.279Z,19.40
2018-01-13T18:24:52.410Z,18.87
2018-01-13T18:27:18.808Z,17.55
2018-01-13T18:29:45.451Z,19.00
2018-01-13T18:32:11.900Z,19.35
2018-01-13T18:34:38.301Z,19.40
2018-01-13T18:37:04.666Z,19.10
2018-01-13T18:39:31.047Z,18.30
2018-01-13T18:41:59.158Z,21.02
2018-01-13T18:44:25.522Z,18.70
2018-01-13T18:46:52.643Z,19.70
2018-01-13T18:49:19.048Z,18.50
2018-01-13T18:51:45.398Z,21.12
2018-01-13T18:54:11.718Z,19.10
2018-01-13T18:56:38.068Z,16.40
2018-01-13T18:59:04.388Z,18.00
2018-01-13T19:01:30.778Z,20.40
2018-01-13T19:03:57.915Z,20.33
2018-01-13T19:06:24.259Z,20.80
2018-01-13T19:08:51.414Z,20.77
2018-01-13T19:11:18.487Z,17.05
2018-01-13T19:13:44.856Z,20.90
2018-01-13T19:16:11.205Z,23.30
2018-01-13T19:18:37.543Z,19.52
2018-01-13T19:21:03.899Z,17.87
2018-01-13T19:23:30.995Z,20.88
2018-01-13T19:25:57.335Z,18.73
2018-01-13T19:28:23.698Z,17.00
2018-01-13T19:30:50.771Z,20.98
2018-01-13T19:33:17.123Z,18.92
2018-01-13T19:35:43.486Z,22.23
2018-01-13T19:38:10.814Z,21.00
2018-01-13T19:40:37.162Z,20.02
2018-01-13T19:43:03.519Z,18.98
2018-01-13T19:45:29.866Z,18.98
2018-01-13T19:47:57.030Z,18.75
2018-01-13T19:50:23.380Z,18.33
2018-01-13T19:52:50.103Z,19.73
2018-01-13T19:55:16.476Z,17.75
2018-01-13T19:57:42.858Z,19.40
2018-01-13T20:00:09.947Z,18.60
2018-01-13T20:02:36.274Z,19.73
2018-01-13T20:05:02.642Z,19.52
2018-01-13T20:07:28.994Z,19.17
2018-01-13T20:09:56.091Z,20.77
2018-01-13T20:12:22.434Z,20.00
2018-01-13T20:14:48.819Z,16.85
2018-01-13T20:17:15.959Z,17.27
2018-01-13T20:19:42.302Z,16.42
2018-01-13T20:22:09.382Z,17.35
2018-01-13T20:24:35.715Z,16.42
2018-01-13T20:27:02.052Z,16.92
2018-01-13T20:29:28.403Z,17.00
2018-01-13T20:31:54.730Z,16.20
2018-01-13T20:34:21.114Z,16.67
2018-01-13T20:36:47.451Z,14.18
2018-01-13T20:39:13.806Z,16.55
2018-01-13T20:41:40.134Z,17.73
2018-01-13T20:44:06.513Z,15.82
2018-01-13T20:46:32.915Z,17.55
2018-01-13T20:48:59.259Z,17.23
2018-01-13T20:51:25.591Z,15.95
2018-01-13T20:53:51.926Z,15.52
2018-01-13T20:56:19.055Z,17.08
2018-01-13T20:58:45.420Z,14.95
2018-01-13T21:01:12.614Z,14.57
2018-01-13T21:03:38.951Z,15.30
2018-01-13T21:06:05.312Z,14.15
2018-01-13T21:08:31.728Z,14.55
2018-01-13T21:10:58.091Z,13.35
2018-01-13T21:13:25.242Z,14.70
2018-01-13T21:15:52.331Z,14.75
2018-01-13T21:18:18.684Z,14.57
2018-01-13T21:20:45.060Z,13.32
2018-01-13T21:23:12.158Z,14.68
2018-01-13T21:25:38.499Z,13.77
2018-01-13T21:28:04.846Z,13.43
2018-01-13T21:30:31.179Z,13.52
2018-01-13T21:32:58.302Z,14.85
2018-01-13T21:35:24.626Z,14.25
2018-01-13T21:37:50.963Z,13.85
2018-01-13T21:40:17.286Z,15.45
2018-01-13T21:42:43.650Z,15.50
2018-01-13T21:45:10.783Z,14.68
2018-01-13T21:47:37.185Z,15.15
2018-01-13T21:50:03.538Z,17.00
2018-01-13T21:52:29.881Z,15.68
2018-01-13T21:54:56.215Z,14.98
2018-01-13T21:57:22.554Z,14.85
2018-01-13T21:59:48.898Z,17.92
2018-01-13T22:02:15.283Z,17.70
2018-01-13T22:04:41.625Z,15.30
2018-01-13T22:07:08.010Z,14.55
2018-01-13T22:09:35.123Z,13.95
2018-01-13T22:12:01.474Z,14.93
2018-01-13T22:14:27.832Z,14.13
2018-01-13T22:16:54.939Z,14.60
2018-01-13T22:19:21.320Z,15.07
2018-01-13T22:21:47.669Z,16.30
2018-01-13T22:24:14.037Z,15.80
2018-01-13T22:26:40.389Z,15.88
2018-01-13T22:29:06.755Z,15.52
2018-01-13T22:31:33.109Z,15.23
2018-01-13T22:33:59.434Z,13.73
2018-01-13T22:36:25.782Z,16.40
2018-01-13T22:38:52.298Z,14.40
2018-01-13T22:41:18.642Z,16.23
2018-01-13T22:43:44.963Z,15.20
2018-01-13T22:46:11.325Z,16.00
2018-01-13T22:48:37.650Z,15.55
2018-01-13T22:51:04.056Z,14.55
2018-01-13T22:53:31.118Z,14.40
2018-01-13T22:55:57.442Z,15.30
2018-01-13T22:58:23.775Z,14.32
2018-01-13T23:00:55.195Z,16.23
2018-01-13T23:03:21.550Z,15.27
2018-01-13T23:05:47.898Z,16.15
2018-01-13T23:08:14.223Z,16.77
2018-01-13T23:10:40.577Z,15.60
2018-01-13T23:13:06.997Z,15.02
2018-01-13T23:15:33.329Z,14.23
2018-01-13T23:17:59.646Z,14.70
2018-01-13T23:20:25.979Z,14.45
2018-01-13T23:22:52.497Z,14.27
2018-01-13T23:25:19.481Z,16.75
2018-01-13T23:27:45.846Z,15.07
2018-01-13T23:30:12.921Z,14.57
2018-01-13T23:32:39.274Z,13.45
2018-01-13T23:35:05.606Z,15.07
2018-01-13T23:37:31.998Z,15.77
2018-01-13T23:39:58.334Z,14.52
2018-01-13T23:42:24.684Z,13.85
2018-01-13T23:44:51.019Z,14.25
2018-01-13T23:47:17.398Z,13.82
2018-01-13T23:49:44.485Z,13.23
2018-01-13T23:52:10.888Z,16.50
2018-01-13T23:54:37.950Z,14.43
2018-01-13T23:57:04.348Z,12.73
2018-01-13T23:59:30.689Z,13.73
